Time,TemperatureF,DewpointF,PressureIn,WindDirection,WindDirectionDegrees,WindSpeedMPH,WindSpeedGustMPH,Humidity,HourlyPrecipIn,Conditions,Clouds,dailyrainin,SoftwareType,DateUTC
2013-09-03 00:12:00,59.0,44.0,29.81,South,174,2.0,3.0,58,0.00,,,0.00,,2013-09-03 07:12:00,
2013-09-03 00:22:00,59.0,45.0,29.81,SSW,202,2.0,2.0,59,0.00,,,0.00,,2013-09-03 07:22:00,
2013-09-03 00:52:00,60.0,46.0,29.81,South,191,2.0,3.0,59,0.00,,,0.00,,2013-09-03 07:52:00,
2013-09-03 01:11:00,60.0,46.0,29.81,South,180,2.0,3.0,59,0.00,,,0.00,,2013-09-03 08:11:00,
2013-09-03 01:22:00,60.0,46.0,29.81,South,180,2.0,3.0,59,0.00,,,0.00,,2013-09-03 08:22:00,
2013-09-03 01:52:00,59.0,45.0,29.81,SSE,153,1.0,2.0,59,0.00,,,0.00,,2013-09-03 08:52:00,
2013-09-03 02:11:00,58.0,44.0,29.81,South,191,2.0,2.0,60,0.00,,,0.00,,2013-09-03 09:11:00,
2013-09-03 02:21:00,58.0,45.0,29.81,SE,135,2.0,3.0,61,0.00,,,0.00,,2013-09-03 09:21:00,
2013-09-03 02:43:00,57.0,44.0,29.81,SE,129,2.0,3.0,61,0.00,,,0.00,,2013-09-03 09:43:00,
2013-09-03 02:53:00,56.0,44.0,29.81,SSE,158,2.0,3.0,63,0.00,,,0.00,,2013-09-03 09:53:00,
2013-09-03 03:12:00,56.0,44.0,29.81,SSE,158,2.0,3.0,65,0.00,,,0.00,,2013-09-03 10:12:00,
2013-09-03 03:23:00,56.0,44.0,29.81,SSE,147,2.0,2.0,65,0.00,,,0.00,,2013-09-03 10:23:00,
2013-09-03 03:42:00,56.0,45.0,29.81,SE,125,3.0,5.0,66,0.00,,,0.00,,2013-09-03 10:42:00,
2013-09-03 03:53:00,56.0,45.0,29.81,SE,143,3.0,5.0,67,0.00,,,0.00,,2013-09-03 10:53:00,
2013-09-03 04:12:00,55.0,44.0,29.81,SSE,152,2.0,5.0,67,0.00,,,0.00,,2013-09-03 11:12:00,
2013-09-03 04:22:00,54.0,44.0,29.81,SE,130,2.0,2.0,68,0.00,,,0.00,,2013-09-03 11:22:00,
2013-09-03 04:52:00,54.0,44.0,29.81,SSE,158,1.0,2.0,70,0.00,,,0.00,,2013-09-03 11:52:00,
2013-09-03 05:12:00,55.0,45.0,29.83,SSE,163,1.0,2.0,69,0.00,,,0.00,,2013-09-03 12:12:00,
2013-09-03 05:21:00,55.0,46.0,29.84,WSW,249,1.0,2.0,71,0.00,,,0.00,,2013-09-03 12:21:00,
2013-09-03 05:52:00,55.0,45.0,29.81,South,178,3.0,3.0,68,0.00,,,0.00,,2013-09-03 12:52:00,
2013-09-03 06:11:00,54.0,44.0,29.81,SSE,158,2.0,3.0,68,0.00,,,0.00,,2013-09-03 13:11:00,
2013-09-03 06:21:00,54.0,44.0,29.81,SSE,163,2.0,3.0,69,0.00,,,0.00,,2013-09-03 13:21:00,
2013-09-03 06:41:00,54.0,44.0,29.84,SSE,157,2.0,3.0,69,0.00,,,0.00,,2013-09-03 13:41:00,
2013-09-03 06:52:00,53.0,44.0,29.84,SSE,158,2.0,6.0,71,0.00,,,0.00,,2013-09-03 13:52:00,
2013-09-03 07:11:00,52.0,43.0,29.84,SE,130,2.0,3.0,71,0.00,,,0.00,,2013-09-03 14:11:00,
2013-09-03 07:21:00,52.0,43.0,29.84,SSE,158,2.0,2.0,71,0.00,,,0.00,,2013-09-03 14:21:00,
2013-09-03 07:52:00,57.0,48.0,29.84,ESE,118,0.0,2.0,72,0.00,,,0.00,,2013-09-03 14:52:00,
2013-09-03 08:22:00,61.0,49.0,29.84,ESE,112,2.0,3.0,64,0.00,,,0.00,,2013-09-03 15:22:00,
2013-09-03 08:53:00,64.0,49.0,29.84,SSE,158,2.0,2.0,58,0.00,,,0.00,,2013-09-03 15:53:00,
2013-09-03 09:14:00,66.0,46.0,29.84,NNE,27,2.0,2.0,48,0.00,,,0.00,,2013-09-03 16:14:00,
2013-09-03 09:24:00,66.0,46.0,29.84,NNW,330,2.0,3.0,49,0.00,,,0.00,,2013-09-03 16:24:00,
2013-09-03 09:43:00,67.0,47.0,29.84,NW,320,3.0,5.0,48,0.00,,,0.00,,2013-09-03 16:43:00,
2013-09-03 09:54:00,66.0,46.0,29.84,WNW,282,3.0,6.0,48,0.00,,,0.00,,2013-09-03 16:54:00,
2013-09-03 10:12:00,68.0,46.0,29.84,WNW,300,4.0,6.0,45,0.00,,,0.00,,2013-09-03 17:12:00,
2013-09-03 10:23:00,70.0,47.0,29.84,NW,325,2.0,5.0,44,0.00,,,0.00,,2013-09-03 17:23:00,
2013-09-03 10:52:00,73.0,49.0,29.84,East,79,1.0,7.0,42,0.00,,,0.00,,2013-09-03 17:52:00,
2013-09-03 11:11:00,71.0,45.0,29.84,NNW,334,5.0,7.0,40,0.00,,,0.00,,2013-09-03 18:11:00,
2013-09-03 11:21:00,73.0,45.0,29.84,NNW,327,4.0,6.0,37,0.00,,,0.00,,2013-09-03 18:21:00,
2013-09-03 11:42:00,72.0,45.0,29.84,NNW,331,9.0,12.0,38,0.00,,,0.00,,2013-09-03 18:42:00,
2013-09-03 11:52:00,73.0,46.0,29.84,WNW,292,6.0,10.0,38,0.00,,,0.00,,2013-09-03 18:52:00,
2013-09-03 12:11:00,73.0,45.0,29.84,WNW,301,8.0,10.0,37,0.00,,,0.00,,2013-09-03 19:11:00,
2013-09-03 12:22:00,75.0,45.0,29.84,NW,311,5.0,10.0,35,0.00,,,0.00,,2013-09-03 19:22:00,
2013-09-03 12:42:00,79.0,44.0,29.84,WSW,258,5.0,9.0,29,0.00,,,0.00,,2013-09-03 19:42:00,
2013-09-03 12:52:00,80.0,44.0,29.84,SW,235,4.0,9.0,28,0.00,,,0.00,,2013-09-03 19:52:00,
2013-09-03 13:11:00,78.0,42.0,29.84,WSW,253,2.0,13.0,28,0.00,,,0.00,,2013-09-03 20:11:00,
2013-09-03 13:21:00,78.0,44.0,29.84,WNW,298,9.0,14.0,30,0.00,,,0.00,,2013-09-03 20:21:00,
2013-09-03 13:42:00,77.0,43.0,29.84,NNW,337,10.0,13.0,30,0.00,,,0.00,,2013-09-03 20:42:00,
2013-09-03 13:52:00,77.0,43.0,29.84,WNW,292,8.0,15.0,30,0.00,,,0.00,,2013-09-03 20:52:00,
2013-09-03 14:11:00,78.0,43.0,29.81,NW,312,8.0,15.0,29,0.00,,,0.00,,2013-09-03 21:11:00,
2013-09-03 14:22:00,78.0,42.0,29.81,NW,321,11.0,14.0,28,0.00,,,0.00,,2013-09-03 21:22:00,
2013-09-03 14:43:00,79.0,41.0,29.81,NNW,328,8.0,14.0,26,0.00,,,0.00,,2013-09-03 21:43:00,
2013-09-03 14:54:00,79.0,40.0,29.81,NW,320,9.0,13.0,25,0.00,,,0.00,,2013-09-03 21:54:00,
2013-09-03 15:13:00,79.0,39.0,29.81,NNW,333,8.0,12.0,24,0.00,,,0.00,,2013-09-03 22:13:00,
2013-09-03 15:23:00,80.0,40.0,29.81,NNW,338,9.0,13.0,24,0.00,,,0.00,,2013-09-03 22:23:00,
2013-09-03 15:52:00,81.0,39.0,29.81,WNW,297,9.0,12.0,22,0.00,,,0.00,,2013-09-03 22:52:00,
2013-09-03 16:22:00,79.0,37.0,29.81,NNW,332,6.0,10.0,22,0.00,,,0.00,,2013-09-03 23:22:00,
2013-09-03 16:53:00,81.0,39.0,29.78,NW,306,9.0,12.0,22,0.00,,,0.00,,2013-09-03 23:53:00,
2013-09-03 17:11:00,79.0,37.0,29.78,NW,306,7.0,12.0,22,0.00,,,0.00,,2013-09-04 00:11:00,
2013-09-03 17:22:00,79.0,37.0,29.78,WNW,301,7.0,12.0,22,0.00,,,0.00,,2013-09-04 00:22:00,
2013-09-03 17:42:00,77.0,37.0,29.81,NNW,333,9.0,10.0,24,0.00,,,0.00,,2013-09-04 00:42:00,
2013-09-03 17:52:00,77.0,37.0,29.81,NNW,341,6.0,12.0,24,0.00,,,0.00,,2013-09-04 00:52:00,
2013-09-03 18:11:00,76.0,40.0,29.81,NNW,343,7.0,10.0,27,0.00,,,0.00,,2013-09-04 01:11:00,
2013-09-03 18:21:00,76.0,41.0,29.81,NNW,331,9.0,13.0,29,0.00,,,0.00,,2013-09-04 01:21:00,
2013-09-03 18:42:00,74.0,42.0,29.81,NNW,334,10.0,13.0,32,0.00,,,0.00,,2013-09-04 01:42:00,
2013-09-03 18:52:00,73.0,42.0,29.81,NNW,338,9.0,13.0,33,0.00,,,0.00,,2013-09-04 01:52:00,
2013-09-03 19:11:00,71.0,43.0,29.81,NNW,338,8.0,13.0,36,0.00,,,0.00,,2013-09-04 02:11:00,
2013-09-03 19:22:00,70.0,43.0,29.81,North,352,7.0,13.0,37,0.00,,,0.00,,2013-09-04 02:22:00,
2013-09-03 19:42:00,69.0,42.0,29.84,NNW,338,6.0,10.0,38,0.00,,,0.00,,2013-09-04 02:42:00,
2013-09-03 19:52:00,69.0,42.0,29.84,NNW,332,6.0,10.0,38,0.00,,,0.00,,2013-09-04 02:52:00,
2013-09-03 20:11:00,67.0,43.0,29.84,NNW,345,3.0,6.0,41,0.00,,,0.00,,2013-09-04 03:11:00,
2013-09-03 20:22:00,67.0,43.0,29.84,NNW,344,2.0,6.0,41,0.00,,,0.00,,2013-09-04 03:22:00,
2013-09-03 20:44:00,66.0,42.0,29.87,NNW,330,2.0,6.0,42,0.00,,,0.00,,2013-09-04 03:44:00,
2013-09-03 20:54:00,66.0,43.0,29.87,North,2,2.0,5.0,43,0.00,,,0.00,,2013-09-04 03:54:00,
2013-09-03 21:14:00,65.0,43.0,29.87,WNW,292,1.0,2.0,45,0.00,,,0.00,,2013-09-04 04:14:00,
2013-09-03 21:54:00,62.0,44.0,29.87,West,277,2.0,3.0,52,0.00,,,0.00,,2013-09-04 04:54:00,
2013-09-03 22:12:00,62.0,46.0,29.87,NNW,338,2.0,5.0,55,0.00,,,0.00,,2013-09-04 05:12:00,
2013-09-03 22:23:00,61.0,47.0,29.87,WNW,292,2.0,2.0,59,0.00,,,0.00,,2013-09-04 05:23:00,